createdAt,value
2022-11-23T00:02:20.651Z,41.17
2022-11-23T00:04:50.596Z,41.33
2022-11-23T00:07:23.685Z,37.67
2022-11-23T00:09:53.561Z,42.65
2022-11-23T00:12:23.437Z,38.88
2022-11-23T00:14:53.247Z,42.13
2022-11-23T00:17:23.044Z,46.05
2022-11-23T00:19:52.891Z,38.80
2022-11-23T00:22:25.324Z,40.15
2022-11-23T00:24:55.222Z,30.23
2022-11-23T00:27:25.097Z,41.95
2022-11-23T00:29:55.775Z,66.05
2022-11-23T00:32:25.602Z,64.43
2022-11-23T00:34:55.510Z,57.20
2022-11-23T00:37:28.729Z,42.50
2022-11-23T00:39:59.306Z,57.40
2022-11-23T00:42:33.766Z,50.55
2022-11-23T00:45:07.187Z,45.25
2022-11-23T00:47:37.083Z,63.08
2022-11-23T00:50:09.352Z,70.95
2022-11-23T00:52:42.300Z,58.63
2022-11-23T00:55:12.437Z,46.53
2022-11-23T00:57:42.335Z,39.95
2022-11-23T01:00:14.472Z,32.42
2022-11-23T01:02:44.283Z,47.58
2022-11-23T01:05:14.293Z,42.33
2022-11-23T01:07:46.833Z,35.00
2022-11-23T01:10:16.779Z,45.58
2022-11-23T01:12:47.554Z,32.03
2022-11-23T01:15:17.559Z,24.73
2022-11-23T01:17:47.583Z,55.75
2022-11-23T01:20:18.633Z,44.20
2022-11-23T01:22:51.429Z,34.22
2022-11-23T01:25:21.540Z,22.67
2022-11-23T01:27:51.457Z,28.30
2022-11-23T01:30:24.224Z,20.50
2022-11-23T01:32:54.637Z,24.60
2022-11-23T01:35:24.517Z,41.67
2022-11-23T01:37:57.936Z,17.85
2022-11-23T01:40:27.873Z,27.05
2022-11-23T01:42:59.782Z,19.80
2022-11-23T01:45:41.852Z,20.83
2022-11-23T01:48:16.284Z,24.02
2022-11-23T01:50:47.729Z,21.50
2022-11-23T01:53:20.852Z,20.60
2022-11-23T01:55:52.654Z,18.60
2022-11-23T01:58:24.412Z,40.13
2022-11-23T02:00:55.215Z,26.92
2022-11-23T02:03:25.514Z,45.78
2022-11-23T02:06:01.679Z,33.38
2022-11-23T02:08:34.736Z,23.45
2022-11-23T02:11:04.934Z,32.28
2022-11-23T02:13:35.448Z,26.38
2022-11-23T02:16:06.212Z,24.45
2022-11-23T02:18:37.730Z,24.48
2022-11-23T02:21:08.005Z,24.10
2022-11-23T02:23:47.236Z,18.33
2022-11-23T02:26:22.107Z,31.10
2022-11-23T02:28:55.365Z,30.23
2022-11-23T02:31:25.937Z,39.00
2022-11-23T02:33:57.363Z,27.73
2022-11-23T02:36:40.011Z,32.40
2022-11-23T02:39:15.384Z,28.30
2022-11-23T02:41:49.797Z,27.25
2022-11-23T02:44:33.168Z,29.85
2022-11-23T02:47:03.145Z,21.85
2022-11-23T02:49:35.222Z,36.67
2022-11-23T02:52:05.924Z,37.08
2022-11-23T02:54:36.404Z,39.13
2022-11-23T02:57:09.842Z,36.38
2022-11-23T02:59:43.114Z,42.10
2022-11-23T03:02:13.225Z,41.42
2022-11-23T03:04:43.341Z,95.40
2022-11-23T03:07:13.241Z,60.55
2022-11-23T03:09:43.112Z,46.05
2022-11-23T03:12:16.483Z,47.35
2022-11-23T03:14:46.882Z,97.55
2022-11-23T03:17:16.780Z,34.08
2022-11-23T03:19:48.850Z,36.83
2022-11-23T03:22:18.759Z,32.92
2022-11-23T03:24:50.193Z,32.53
2022-11-23T03:27:22.825Z,22.65
2022-11-23T03:29:54.042Z,22.08
2022-11-23T03:32:24.517Z,23.02
2022-11-23T03:34:57.632Z,15.98
2022-11-23T03:37:28.273Z,28.13
2022-11-23T03:39:58.132Z,35.40
2022-11-23T03:42:54.200Z,24.60
2022-11-23T03:45:24.200Z,20.42
2022-11-23T03:47:54.424Z,153.55
2022-11-23T03:50:24.986Z,91.60
2022-11-23T03:52:54.893Z,70.20
2022-11-23T03:55:24.859Z,59.97
2022-11-23T03:57:59.731Z,66.15
2022-11-23T04:00:32.584Z,105.00
2022-11-23T04:03:02.466Z,111.20
2022-11-23T04:05:55.442Z,73.85
2022-11-23T04:08:43.846Z,49.22
2022-11-23T04:11:19.935Z,31.40
2022-11-23T04:13:55.547Z,27.48
2022-11-23T04:16:25.747Z,30.35
2022-11-23T04:18:55.823Z,28.92
2022-11-23T04:21:25.941Z,32.20
2022-11-23T04:23:55.995Z,24.70
2022-11-23T04:26:26.499Z,22.83
2022-11-23T04:28:59.934Z,19.65
2022-11-23T04:31:30.382Z,18.48
2022-11-23T04:34:13.348Z,28.42
2022-11-23T04:36:43.582Z,25.40
2022-11-23T04:39:15.533Z,18.60
2022-11-23T04:42:15.848Z,48.60
2022-11-23T04:44:55.144Z,39.60
2022-11-23T04:47:27.252Z,37.45
2022-11-23T04:49:59.484Z,21.70
2022-11-23T04:52:29.429Z,19.98
2022-11-23T04:55:00.779Z,19.23
2022-11-23T04:57:33.528Z,25.35
2022-11-23T05:00:08.122Z,20.75
2022-11-23T05:02:40.136Z,21.10
2022-11-23T05:05:21.256Z,17.52
2022-11-23T05:07:52.724Z,12.88
2022-11-23T05:10:25.552Z,11.85
2022-11-23T05:12:59.830Z,13.40
2022-11-23T05:15:34.124Z,10.27
2022-11-23T05:18:06.547Z,13.50
2022-11-23T05:20:37.458Z,10.20
2022-11-23T05:23:08.239Z,41.40
2022-11-23T05:25:41.768Z,52.08
2022-11-23T05:28:39.158Z,37.92
2022-11-23T05:31:12.103Z,29.60
2022-11-23T05:33:42.176Z,19.60
2022-11-23T05:36:14.862Z,13.30
2022-11-23T05:38:45.692Z,13.77
2022-11-23T05:41:23.083Z,11.15
2022-11-23T05:43:57.336Z,22.05
2022-11-23T05:46:33.166Z,14.07
2022-11-23T05:49:03.038Z,10.55
2022-11-23T05:51:38.407Z,11.75
2022-11-23T05:54:09.338Z,12.63
2022-11-23T05:56:43.592Z,12.80
2022-11-23T05:59:18.706Z,12.00
2022-11-23T06:02:00.272Z,9.98
2022-11-23T06:04:34.771Z,55.35
2022-11-23T06:07:05.838Z,41.60
2022-11-23T06:09:47.557Z,24.85
2022-11-23T06:12:17.961Z,27.55
2022-11-23T06:14:48.057Z,25.85
2022-11-23T06:17:24.240Z,23.00
2022-11-23T06:19:57.737Z,24.10
2022-11-23T06:22:28.504Z,19.00
2022-11-23T06:25:09.187Z,17.88
2022-11-23T06:27:42.794Z,19.42
2022-11-23T06:30:27.911Z,18.35
2022-11-23T06:33:05.945Z,19.30
2022-11-23T06:35:41.855Z,15.02
2022-11-23T06:38:11.949Z,19.45
2022-11-23T06:40:42.364Z,19.40
2022-11-23T06:43:13.473Z,21.95
2022-11-23T06:45:48.015Z,28.35
2022-11-23T06:48:21.430Z,24.60
2022-11-23T06:50:52.311Z,28.02
2022-11-23T06:53:24.817Z,23.52
2022-11-23T06:56:02.684Z,39.72
2022-11-23T06:58:36.000Z,31.90
2022-11-23T07:01:12.368Z,31.60
2022-11-23T07:03:51.325Z,45.58
2022-11-23T07:06:29.502Z,88.78
2022-11-23T07:09:03.929Z,70.55
2022-11-23T07:12:00.230Z,53.42
2022-11-23T07:14:30.742Z,54.05
2022-11-23T07:17:01.715Z,36.97
2022-11-23T07:19:34.514Z,23.38
2022-11-23T07:22:04.924Z,21.67
2022-11-23T07:24:40.467Z,24.38
2022-11-23T07:27:13.514Z,30.38
2022-11-23T07:29:43.549Z,26.88
2022-11-23T07:32:15.892Z,30.50
2022-11-23T07:34:49.214Z,29.20
2022-11-23T07:37:21.061Z,29.42
2022-11-23T07:39:58.079Z,28.00
2022-11-23T07:42:35.679Z,28.40
2022-11-23T07:45:08.618Z,24.08
2022-11-23T07:47:40.795Z,22.27
2022-11-23T07:50:15.762Z,21.10
2022-11-23T07:52:46.756Z,22.80
2022-11-23T07:55:17.276Z,27.13
2022-11-23T07:57:48.292Z,36.13
2022-11-23T08:00:21.376Z,23.00
2022-11-23T08:03:25.458Z,27.00
2022-11-23T08:05:43.998Z,32.88
2022-11-23T08:08:15.230Z,38.03
2022-11-23T08:10:51.423Z,65.40
2022-11-23T08:13:24.243Z,25.33
2022-11-23T08:15:56.052Z,22.80
2022-11-23T08:18:28.404Z,20.90
2022-11-23T08:21:03.086Z,33.33
2022-11-23T08:23:33.467Z,27.42
2022-11-23T08:26:09.087Z,42.00
2022-11-23T08:31:13.298Z,31.48
2022-11-23T08:33:44.526Z,39.42
2022-11-23T08:36:17.825Z,31.27
2022-11-23T08:38:47.679Z,30.63
2022-11-23T08:41:20.622Z,63.70
2022-11-23T08:43:51.485Z,83.22
2022-11-23T08:46:21.805Z,51.05
2022-11-23T08:48:51.659Z,44.53
2022-11-23T08:51:25.198Z,66.65
2022-11-23T08:53:55.263Z,45.58
2022-11-23T08:56:25.209Z,41.00
2022-11-23T08:58:55.950Z,36.72
2022-11-23T09:01:27.174Z,36.97
2022-11-23T09:03:58.331Z,34.38
2022-11-23T09:06:32.758Z,29.48
2022-11-23T09:09:02.987Z,37.00
2022-11-23T09:11:32.941Z,32.28
2022-11-23T09:14:03.056Z,27.75
2022-11-23T09:16:34.304Z,35.47
2022-11-23T09:19:04.911Z,30.50
2022-11-23T09:21:39.517Z,39.03
2022-11-23T09:24:10.532Z,33.33
2022-11-23T09:26:41.221Z,35.08
2022-11-23T09:29:14.573Z,31.70
2022-11-23T09:31:44.460Z,29.45
2022-11-23T09:34:15.808Z,28.80
2022-11-23T09:36:48.610Z,27.83
2022-11-23T09:39:18.735Z,29.60
2022-11-23T09:42:03.440Z,21.33
2022-11-23T09:44:45.869Z,27.23
2022-11-23T09:47:30.103Z,24.65
2022-11-23T09:50:05.004Z,79.07
2022-11-23T09:52:38.684Z,26.88
2022-11-23T09:55:15.183Z,21.65
2022-11-23T09:57:47.267Z,25.35
2022-11-23T10:00:20.477Z,20.27
2022-11-23T10:02:50.404Z,19.30
2022-11-23T10:05:23.460Z,18.52
2022-11-23T10:08:06.368Z,22.38
2022-11-23T10:10:42.592Z,20.80
2022-11-23T10:13:32.546Z,26.50
2022-11-23T10:16:17.467Z,18.25
2022-11-23T10:18:54.249Z,18.88
2022-11-23T10:21:32.655Z,25.92
2022-11-23T10:24:14.368Z,22.43
2022-11-23T10:26:47.042Z,18.70
2022-11-23T10:29:20.149Z,21.38
2022-11-23T10:31:57.072Z,21.38
2022-11-23T10:34:43.832Z,21.27
2022-11-23T10:37:15.891Z,22.23
2022-11-23T10:39:48.415Z,20.63
2022-11-23T10:42:23.721Z,22.02
2022-11-23T10:44:55.539Z,23.88
2022-11-23T10:47:41.499Z,26.05
2022-11-23T10:50:30.302Z,22.38
2022-11-23T10:53:51.345Z,21.05
2022-11-23T10:56:30.618Z,22.33
2022-11-23T10:59:00.892Z,22.92
2022-11-23T11:01:32.849Z,27.23
2022-11-23T11:04:06.361Z,21.67
2022-11-23T11:06:37.393Z,27.17
2022-11-23T11:09:13.449Z,27.83
2022-11-23T11:11:50.954Z,32.97
2022-11-23T11:14:23.453Z,27.58
2022-11-23T11:16:55.798Z,24.40
2022-11-23T11:19:30.518Z,22.15
2022-11-23T11:22:02.467Z,21.00
2022-11-23T11:24:36.515Z,21.63
2022-11-23T11:27:15.915Z,101.85
2022-11-23T11:32:25.671Z,34.85
2022-11-23T11:34:58.364Z,28.13
2022-11-23T11:37:35.574Z,24.20
2022-11-23T11:40:11.416Z,24.88
2022-11-23T11:42:48.141Z,31.63
2022-11-23T11:45:20.996Z,31.08
2022-11-23T11:47:54.968Z,30.08
2022-11-23T11:50:31.957Z,34.13
2022-11-23T11:53:07.363Z,33.20
2022-11-23T11:55:51.728Z,30.17
2022-11-23T11:58:27.487Z,21.80
2022-11-23T12:01:03.542Z,23.08
2022-11-23T12:03:43.035Z,25.23
2022-11-23T12:06:23.670Z,22.73
2022-11-23T12:09:01.846Z,26.20
2022-11-23T12:11:31.885Z,20.75
2022-11-23T12:14:06.615Z,21.55
2022-11-23T12:16:42.793Z,16.75
2022-11-23T12:19:19.642Z,16.10
2022-11-23T12:22:07.482Z,18.85
2022-11-23T12:24:49.248Z,23.80
2022-11-23T12:27:28.661Z,16.85
2022-11-23T12:30:19.423Z,21.83
2022-11-23T12:33:04.361Z,91.22
2022-11-23T12:36:00.108Z,35.03
2022-11-23T12:38:35.162Z,27.52
2022-11-23T12:41:33.485Z,22.02
2022-11-23T12:44:52.057Z,26.37
2022-11-23T12:47:35.152Z,25.20
2022-11-23T12:50:13.884Z,27.88
2022-11-23T12:52:58.410Z,21.67
2022-11-23T12:55:32.346Z,23.40
2022-11-23T12:58:08.390Z,26.80
2022-11-23T13:00:44.184Z,22.38
2022-11-23T13:03:41.444Z,24.85
2022-11-23T13:07:20.416Z,29.40
2022-11-23T13:09:59.587Z,25.02
2022-11-23T13:12:44.058Z,29.13
2022-11-23T13:15:28.050Z,24.05
2022-11-23T13:18:03.383Z,21.33
2022-11-23T13:21:19.174Z,33.38
2022-11-23T13:23:49.815Z,21.02
2022-11-23T13:26:24.746Z,29.73
2022-11-23T13:28:57.200Z,25.88
2022-11-23T13:31:31.862Z,22.52
2022-11-23T13:34:04.277Z,24.80
2022-11-23T13:40:04.547Z,21.92
2022-11-23T13:42:37.049Z,24.95
2022-11-23T13:45:27.040Z,25.77
2022-11-23T13:48:48.802Z,28.33
2022-11-23T13:51:09.755Z,26.08
2022-11-23T13:53:44.413Z,25.80
2022-11-23T13:56:35.567Z,33.35
2022-11-23T13:59:31.257Z,39.42
2022-11-23T14:02:04.208Z,24.15
2022-11-23T14:04:35.857Z,25.98
2022-11-23T14:07:07.142Z,29.23
2022-11-23T14:09:47.315Z,29.30
2022-11-23T14:12:22.006Z,27.23
2022-11-23T14:14:56.873Z,28.85
2022-11-23T14:18:06.607Z,27.58
2022-11-23T14:20:44.574Z,26.77
2022-11-23T14:23:36.972Z,30.80
2022-11-23T14:26:22.370Z,30.05
2022-11-23T14:29:06.779Z,30.65
2022-11-23T14:31:42.636Z,22.02
2022-11-23T14:34:20.742Z,28.90
2022-11-23T14:36:56.833Z,27.17
2022-11-23T14:39:54.879Z,22.90
2022-11-23T14:42:29.889Z,28.02
2022-11-23T14:45:04.863Z,22.48
2022-11-23T14:47:36.557Z,20.65
2022-11-23T14:50:07.293Z,23.85
2022-11-23T14:52:39.449Z,25.10
2022-11-23T14:55:13.571Z,25.58
2022-11-23T14:57:49.352Z,30.27
2022-11-23T15:00:32.843Z,63.33
2022-11-23T15:03:27.142Z,67.47
2022-11-23T15:05:58.616Z,85.15
2022-11-23T15:08:32.854Z,104.28
2022-11-23T15:11:08.523Z,52.47
2022-11-23T15:13:49.756Z,49.88
2022-11-23T15:16:21.659Z,37.78
2022-11-23T15:18:52.361Z,34.40
2022-11-23T15:21:27.239Z,66.35
2022-11-23T15:24:00.466Z,40.65
2022-11-23T15:26:47.851Z,44.35
2022-11-23T15:29:39.789Z,36.47
2022-11-23T15:32:31.323Z,49.50
2022-11-23T15:35:04.735Z,47.55
2022-11-23T15:37:37.320Z,60.35
2022-11-23T15:40:09.069Z,70.40
2022-11-23T15:42:40.233Z,68.40
2022-11-23T15:45:41.235Z,59.38
2022-11-23T15:48:15.148Z,51.67
2022-11-23T15:50:52.660Z,63.28
2022-11-23T15:53:27.652Z,61.45
2022-11-23T15:55:57.788Z,56.85
2022-11-23T15:58:27.982Z,47.17
2022-11-23T16:01:07.334Z,51.47
2022-11-23T16:03:41.631Z,47.85
2022-11-23T16:06:28.442Z,39.63
2022-11-23T16:08:58.458Z,74.90
2022-11-23T16:11:35.263Z,58.05
2022-11-23T16:14:16.050Z,56.50
2022-11-23T16:16:50.911Z,59.25
2022-11-23T16:19:27.289Z,49.35
2022-11-23T16:22:02.450Z,64.47
2022-11-23T16:24:35.740Z,80.47
2022-11-23T16:27:15.463Z,102.90
2022-11-23T16:32:29.099Z,104.18
2022-11-23T16:35:01.514Z,119.60
2022-11-23T16:37:32.038Z,114.90
2022-11-23T16:40:01.932Z,121.65
2022-11-23T16:42:31.866Z,138.27
2022-11-23T16:45:02.486Z,133.93
2022-11-23T16:47:34.956Z,132.75
2022-11-23T16:50:05.275Z,110.25
2022-11-23T16:52:35.259Z,75.00
2022-11-23T16:55:05.261Z,66.55
2022-11-23T16:57:37.180Z,95.80
2022-11-23T17:00:10.420Z,63.15
2022-11-23T17:02:43.644Z,46.65
2022-11-23T17:05:18.195Z,65.95
2022-11-23T17:07:48.354Z,50.72
2022-11-23T17:10:18.662Z,42.88
2022-11-23T17:12:52.943Z,43.80
2022-11-23T17:15:24.797Z,55.45
2022-11-23T17:17:58.366Z,50.97
2022-11-23T17:20:29.424Z,46.05
2022-11-23T17:23:01.275Z,297.67
2022-11-23T17:25:31.132Z,112.13
2022-11-23T17:28:02.076Z,74.65
2022-11-23T17:30:33.025Z,75.68
2022-11-23T17:33:06.225Z,119.97
2022-11-23T17:35:38.266Z,101.50
2022-11-23T17:38:09.437Z,84.43
2022-11-23T17:40:39.836Z,63.08
2022-11-23T17:43:09.789Z,61.20
2022-11-23T17:45:39.899Z,55.40
2022-11-23T17:48:13.667Z,67.45
2022-11-23T17:50:43.678Z,79.50
2022-11-23T17:53:13.955Z,104.10
2022-11-23T17:55:45.293Z,112.65
2022-11-23T17:58:15.448Z,131.98
2022-11-23T18:00:45.604Z,111.82
2022-11-23T18:03:18.349Z,84.47
2022-11-23T18:05:49.166Z,80.25
2022-11-23T18:08:19.000Z,71.40
2022-11-23T18:10:48.929Z,80.85
2022-11-23T18:13:19.086Z,83.20
2022-11-23T18:15:49.042Z,73.50
2022-11-23T18:18:21.477Z,72.50
2022-11-23T18:20:51.372Z,68.30
2022-11-23T18:23:21.332Z,74.10
2022-11-23T18:26:01.267Z,68.20
2022-11-23T18:28:32.178Z,71.75
2022-11-23T18:31:02.828Z,61.70
2022-11-23T18:33:35.385Z,63.78
2022-11-23T18:36:05.834Z,68.72
2022-11-23T18:38:37.652Z,71.75
2022-11-23T18:41:08.066Z,68.30
2022-11-23T18:43:38.117Z,65.82
2022-11-23T18:46:10.295Z,63.72
2022-11-23T18:48:42.842Z,59.78
2022-11-23T18:51:13.483Z,62.53
2022-11-23T18:53:44.857Z,57.67
2022-11-23T18:56:14.709Z,62.55
2022-11-23T18:58:46.784Z,69.63
2022-11-23T19:01:18.455Z,64.30
2022-11-23T19:03:52.873Z,50.50
2022-11-23T19:06:25.007Z,68.93
2022-11-23T19:08:58.393Z,93.60
2022-11-23T19:11:29.818Z,102.22
2022-11-23T19:14:01.616Z,89.38
2022-11-23T19:16:33.233Z,94.07
2022-11-23T19:19:07.694Z,96.32
2022-11-23T19:21:39.226Z,97.28
2022-11-23T19:24:11.775Z,93.43
2022-11-23T19:26:42.107Z,103.32
2022-11-23T19:29:13.760Z,96.85
2022-11-23T19:31:43.731Z,92.03
2022-11-23T19:34:16.287Z,106.25
2022-11-23T19:36:46.280Z,180.63
2022-11-23T19:39:16.890Z,243.95
2022-11-23T19:41:47.162Z,104.55
2022-11-23T19:44:17.017Z,86.80
2022-11-23T19:46:47.093Z,100.63
2022-11-23T19:49:19.576Z,101.20
2022-11-23T19:51:52.392Z,98.85
2022-11-23T19:54:22.285Z,93.65
2022-11-23T19:56:52.625Z,106.60
2022-11-23T19:59:22.448Z,107.57
2022-11-23T20:01:52.312Z,110.95
2022-11-23T20:04:25.049Z,90.20
2022-11-23T20:06:54.945Z,123.65
2022-11-23T20:09:27.805Z,95.70
2022-11-23T20:11:57.723Z,92.28
2022-11-23T20:14:27.555Z,100.40
2022-11-23T20:16:57.404Z,100.57
2022-11-23T20:19:29.892Z,85.28
2022-11-23T20:21:59.968Z,89.10
2022-11-23T20:24:29.837Z,78.25
2022-11-23T20:26:59.700Z,86.50
2022-11-23T20:29:29.994Z,84.22
2022-11-23T20:31:59.905Z,85.25
2022-11-23T20:34:32.442Z,107.57
2022-11-23T20:37:02.826Z,102.88
2022-11-23T20:39:32.914Z,101.10
2022-11-23T20:42:03.597Z,111.43
2022-11-23T20:44:34.267Z,99.72
2022-11-23T20:47:05.149Z,117.38
2022-11-23T20:49:38.056Z,127.68
2022-11-23T20:52:08.822Z,117.40
2022-11-23T20:54:38.652Z,125.85
2022-11-23T20:57:09.909Z,120.60
2022-11-23T20:59:39.753Z,113.63
2022-11-23T21:02:11.878Z,113.25
2022-11-23T21:04:44.467Z,109.22
2022-11-23T21:07:14.340Z,111.18
2022-11-23T21:09:44.171Z,120.90
2022-11-23T21:12:26.391Z,102.78
2022-11-23T21:14:56.860Z,106.63
2022-11-23T21:17:26.701Z,104.22
2022-11-23T21:19:59.531Z,96.50
2022-11-23T21:22:29.692Z,100.15
2022-11-23T21:25:00.302Z,112.90
2022-11-23T21:27:30.146Z,93.25
2022-11-23T21:30:01.155Z,89.15
2022-11-23T21:32:31.136Z,100.22
2022-11-23T21:35:03.693Z,100.53
2022-11-23T21:37:33.630Z,95.97
2022-11-23T21:40:03.687Z,105.97
2022-11-23T21:42:34.596Z,95.00
2022-11-23T21:45:04.427Z,84.10
2022-11-23T21:47:35.289Z,88.78
2022-11-23T21:50:08.725Z,83.78
2022-11-23T21:52:38.597Z,86.90
2022-11-23T21:55:10.049Z,96.72
2022-11-23T21:57:39.865Z,88.47
2022-11-23T22:00:11.706Z,88.70
2022-11-23T22:02:42.112Z,80.60
2022-11-23T22:05:15.050Z,71.90
2022-11-23T22:08:00.467Z,68.40
2022-11-23T22:10:34.855Z,75.13
2022-11-23T22:13:05.448Z,72.80
2022-11-23T22:15:35.369Z,69.57
2022-11-23T22:18:05.614Z,71.28
2022-11-23T22:20:39.052Z,78.40
2022-11-23T22:23:09.220Z,78.22
2022-11-23T22:25:40.975Z,72.75
2022-11-23T22:28:12.935Z,77.00
2022-11-23T22:30:42.928Z,75.20
2022-11-23T22:33:13.643Z,76.60
2022-11-23T22:35:46.874Z,77.75
2022-11-23T22:38:16.794Z,66.28
2022-11-23T22:40:49.272Z,78.30
2022-11-23T22:43:19.422Z,81.00
2022-11-23T22:45:49.968Z,75.80
2022-11-23T22:48:19.974Z,72.00
2022-11-23T22:51:00.442Z,85.50
2022-11-23T22:53:31.439Z,67.65
2022-11-23T22:56:03.940Z,70.68
2022-11-23T22:58:35.098Z,80.80
2022-11-23T23:01:09.284Z,68.57
2022-11-23T23:03:39.364Z,79.40
2022-11-23T23:06:18.106Z,78.93
2022-11-23T23:08:49.335Z,70.40
2022-11-23T23:11:19.250Z,75.32
2022-11-23T23:13:49.128Z,81.35
2022-11-23T23:16:19.132Z,78.22
2022-11-23T23:18:49.095Z,76.68
2022-11-23T23:21:23.323Z,72.45
2022-11-23T23:23:54.653Z,71.65
2022-11-23T23:26:26.331Z,78.25
2022-11-23T23:28:57.166Z,90.82
2022-11-23T23:31:27.409Z,72.50
2022-11-23T23:33:57.444Z,82.13
2022-11-23T23:36:30.088Z,67.30
2022-11-23T23:39:00.644Z,80.88
2022-11-23T23:41:30.551Z,75.82
2022-11-23T23:44:00.759Z,66.50
2022-11-23T23:46:30.768Z,69.95
2022-11-23T23:49:01.900Z,66.68
2022-11-23T23:51:34.471Z,64.35
2022-11-23T23:54:05.504Z,97.05
2022-11-23T23:56:35.419Z,79.20
2022-11-23T23:59:05.461Z,72.80
